sensor_id;sensor_type;location;lat;lon;timestamp;temperature;humidity
52181;DHT22;38158;53.338;6.514;2024-03-23T00:52:08;5.20;99.90
52181;DHT22;38158;53.338;6.514;2024-03-23T00:54:33;5.10;99.90
52181;DHT22;38158;53.338;6.514;2024-03-23T00:56:59;5.90;99.90
52181;DHT22;38158;53.338;6.514;2024-03-23T00:59:25;6.40;99.90
52181;DHT22;38158;53.338;6.514;2024-03-23T01:01:56;5.20;99.90
52181;DHT22;38158;53.338;6.514;2024-03-23T01:04:22;5.50;99.90
52181;DHT22;38158;53.338;6.514;2024-03-23T01:06:48;5.00;99.90
52181;DHT22;38158;53.338;6.514;2024-03-23T01:09:13;5.20;99.90
52181;DHT22;38158;53.338;6.514;2024-03-23T01:11:39;4.90;99.90
52181;DHT22;38158;53.338;6.514;2024-03-23T01:14:06;4.90;99.90
52181;DHT22;38158;53.338;6.514;2024-03-23T01:16:32;5.10;99.90
52181;DHT22;38158;53.338;6.514;2024-03-23T01:18:57;4.90;99.90
52181;DHT22;38158;53.338;6.514;2024-03-23T01:21:23;4.80;99.90
52181;DHT22;38158;53.338;6.514;2024-03-23T01:23:50;4.80;99.90
52181;DHT22;38158;53.338;6.514;2024-03-23T01:26:16;4.70;99.90
52181;DHT22;38158;53.338;6.514;2024-03-23T01:28:41;4.70;99.90
52181;DHT22;38158;53.338;6.514;2024-03-23T01:31:07;4.60;99.90
52181;DHT22;38158;53.338;6.514;2024-03-23T01:33:33;5.30;99.90
52181;DHT22;38158;53.338;6.514;2024-03-23T01:35:58;4.60;99.90
52181;DHT22;38158;53.338;6.514;2024-03-23T01:38:24;5.60;99.90
52181;DHT22;38158;53.338;6.514;2024-03-23T01:40:55;5.40;99.90
52181;DHT22;38158;53.338;6.514;2024-03-23T01:43:21;5.00;99.90
52181;DHT22;38158;53.338;6.514;2024-03-23T01:45:47;4.80;99.90
52181;DHT22;38158;53.338;6.514;2024-03-23T01:48:12;5.10;99.90
52181;DHT22;38158;53.338;6.514;2024-03-23T01:50:39;5.40;99.90
52181;DHT22;38158;53.338;6.514;2024-03-23T01:53:05;4.50;99.90
52181;DHT22;38158;53.338;6.514;2024-03-23T01:55:32;4.50;99.90
52181;DHT22;38158;53.338;6.514;2024-03-23T01:57:58;5.00;99.90
52181;DHT22;38158;53.338;6.514;2024-03-23T02:00:24;4.50;99.90
52181;DHT22;38158;53.338;6.514;2024-03-23T02:02:50;4.40;99.90
52181;DHT22;38158;53.338;6.514;2024-03-23T02:05:15;4.60;99.90
52181;DHT22;38158;53.338;6.514;2024-03-23T02:07:42;4.30;99.90
52181;DHT22;38158;53.338;6.514;2024-03-23T02:10:09;4.60;99.90
52181;DHT22;38158;53.338;6.514;2024-03-23T02:12:43;4.40;99.90
52181;DHT22;38158;53.338;6.514;2024-03-23T02:15:09;5.40;99.90
52181;DHT22;38158;53.338;6.514;2024-03-23T02:17:35;5.60;99.90
52181;DHT22;38158;53.338;6.514;2024-03-23T02:20:04;4.40;99.90
52181;DHT22;38158;53.338;6.514;2024-03-23T02:22:38;4.50;99.90
52181;DHT22;38158;53.338;6.514;2024-03-23T02:25:05;4.50;99.90
52181;DHT22;38158;53.338;6.514;2024-03-23T02:27:31;4.50;99.90
52181;DHT22;38158;53.338;6.514;2024-03-23T02:29:56;4.80;99.90
52181;DHT22;38158;53.338;6.514;2024-03-23T02:32:22;4.50;99.90
52181;DHT22;38158;53.338;6.514;2024-03-23T02:34:47;5.10;99.90
52181;DHT22;38158;53.338;6.514;2024-03-23T02:37:13;4.50;99.90
52181;DHT22;38158;53.338;6.514;2024-03-23T02:39:39;4.50;99.90
52181;DHT22;38158;53.338;6.514;2024-03-23T02:42:05;4.40;99.90
52181;DHT22;38158;53.338;6.514;2024-03-23T02:44:30;4.40;99.90
52181;DHT22;38158;53.338;6.514;2024-03-23T02:46:56;4.40;99.90
52181;DHT22;38158;53.338;6.514;2024-03-23T02:49:21;4.40;99.90
52181;DHT22;38158;53.338;6.514;2024-03-23T02:51:47;4.40;99.90
52181;DHT22;38158;53.338;6.514;2024-03-23T02:54:14;4.40;99.90
52181;DHT22;38158;53.338;6.514;2024-03-23T02:56:40;4.90;99.90
52181;DHT22;38158;53.338;6.514;2024-03-23T02:59:05;4.40;99.90
52181;DHT22;38158;53.338;6.514;2024-03-23T03:01:31;4.30;99.90
52181;DHT22;38158;53.338;6.514;2024-03-23T03:03:57;5.30;99.90
52181;DHT22;38158;53.338;6.514;2024-03-23T03:06:26;4.80;99.90
52181;DHT22;38158;53.338;6.514;2024-03-23T03:08:52;4.30;99.90
52181;DHT22;38158;53.338;6.514;2024-03-23T03:11:17;4.20;99.90
52181;DHT22;38158;53.338;6.514;2024-03-23T03:13:43;4.30;99.90
52181;DHT22;38158;53.338;6.514;2024-03-23T03:16:10;4.90;99.90
52181;DHT22;38158;53.338;6.514;2024-03-23T03:18:36;4.90;99.90
52181;DHT22;38158;53.338;6.514;2024-03-23T03:21:02;4.20;99.90
52181;DHT22;38158;53.338;6.514;2024-03-23T03:23:28;4.10;99.90
52181;DHT22;38158;53.338;6.514;2024-03-23T03:25:54;4.10;99.90
52181;DHT22;38158;53.338;6.514;2024-03-23T03:28:20;5.30;99.90
52181;DHT22;38158;53.338;6.514;2024-03-23T03:30:46;4.10;99.90
52181;DHT22;38158;53.338;6.514;2024-03-23T03:33:11;4.00;99.90
52181;DHT22;38158;53.338;6.514;2024-03-23T03:35:37;4.00;99.90
52181;DHT22;38158;53.338;6.514;2024-03-23T03:38:04;4.80;99.90
52181;DHT22;38158;53.338;6.514;2024-03-23T03:40:30;3.90;99.90
52181;DHT22;38158;53.338;6.514;2024-03-23T03:42:55;3.90;99.90
52181;DHT22;38158;53.338;6.514;2024-03-23T03:45:21;3.90;99.90
52181;DHT22;38158;53.338;6.514;2024-03-23T03:47:47;3.90;99.90
52181;DHT22;38158;53.338;6.514;2024-03-23T03:50:12;3.90;99.90
52181;DHT22;38158;53.338;6.514;2024-03-23T03:52:38;3.80;99.90
52181;DHT22;38158;53.338;6.514;2024-03-23T03:55:12;3.90;99.90
52181;DHT22;38158;53.338;6.514;2024-03-23T03:57:38;4.30;99.90
52181;DHT22;38158;53.338;6.514;2024-03-23T04:00:04;3.80;99.90
52181;DHT22;38158;53.338;6.514;2024-03-23T04:02:30;3.80;99.90
52181;DHT22;38158;53.338;6.514;2024-03-23T04:04:56;3.80;99.90
52181;DHT22;38158;53.338;6.514;2024-03-23T04:07:21;3.80;99.90
52181;DHT22;38158;53.338;6.514;2024-03-23T04:09:48;3.70;99.90
52181;DHT22;38158;53.338;6.514;2024-03-23T04:12:15;4.80;99.90
52181;DHT22;38158;53.338;6.514;2024-03-23T04:14:40;3.70;99.90
52181;DHT22;38158;53.338;6.514;2024-03-23T04:17:06;3.70;99.90
52181;DHT22;38158;53.338;6.514;2024-03-23T04:19:32;3.70;99.90
52181;DHT22;38158;53.338;6.514;2024-03-23T04:21:58;3.80;99.90
52181;DHT22;38158;53.338;6.514;2024-03-23T04:24:23;5.40;99.90
52181;DHT22;38158;53.338;6.514;2024-03-23T04:26:51;3.80;99.90
52181;DHT22;38158;53.338;6.514;2024-03-23T04:29:17;3.80;99.90
52181;DHT22;38158;53.338;6.514;2024-03-23T04:31:43;3.80;99.90
52181;DHT22;38158;53.338;6.514;2024-03-23T04:34:08;3.80;99.90
52181;DHT22;38158;53.338;6.514;2024-03-23T04:36:34;3.90;99.90
52181;DHT22;38158;53.338;6.514;2024-03-23T04:39:00;3.90;99.90
52181;DHT22;38158;53.338;6.514;2024-03-23T04:41:26;3.90;99.90
52181;DHT22;38158;53.338;6.514;2024-03-23T04:43:52;3.90;99.90
52181;DHT22;38158;53.338;6.514;2024-03-23T04:46:17;3.90;99.90
52181;DHT22;38158;53.338;6.514;2024-03-23T04:48:43;3.90;99.90
52181;DHT22;38158;53.338;6.514;2024-03-23T04:51:10;3.90;99.90
52181;DHT22;38158;53.338;6.514;2024-03-23T04:53:38;4.60;99.90
52181;DHT22;38158;53.338;6.514;2024-03-23T04:56:03;4.30;99.90
52181;DHT22;38158;53.338;6.514;2024-03-23T04:58:30;3.90;99.90
52181;DHT22;38158;53.338;6.514;2024-03-23T05:00:56;3.90;99.90
52181;DHT22;38158;53.338;6.514;2024-03-23T05:03:22;3.80;99.90
52181;DHT22;38158;53.338;6.514;2024-03-23T05:05:48;4.90;99.90
52181;DHT22;38158;53.338;6.514;2024-03-23T05:08:14;3.80;99.90
52181;DHT22;38158;53.338;6.514;2024-03-23T05:10:41;4.40;99.90
52181;DHT22;38158;53.338;6.514;2024-03-23T05:13:07;5.20;99.90
52181;DHT22;38158;53.338;6.514;2024-03-23T05:15:33;3.80;99.90
52181;DHT22;38158;53.338;6.514;2024-03-23T05:17:59;3.70;99.90
52181;DHT22;38158;53.338;6.514;2024-03-23T05:20:25;3.70;99.90
52181;DHT22;38158;53.338;6.514;2024-03-23T05:22:50;3.70;99.90
52181;DHT22;38158;53.338;6.514;2024-03-23T05:25:16;3.70;99.90
52181;DHT22;38158;53.338;6.514;2024-03-23T05:27:42;3.70;99.90
52181;DHT22;38158;53.338;6.514;2024-03-23T05:30:07;3.70;99.90
52181;DHT22;38158;53.338;6.514;2024-03-23T05:32:34;3.70;99.90
52181;DHT22;38158;53.338;6.514;2024-03-23T05:35:00;4.70;99.90
52181;DHT22;38158;53.338;6.514;2024-03-23T05:37:25;3.70;99.90
52181;DHT22;38158;53.338;6.514;2024-03-23T05:39:51;4.10;99.90
52181;DHT22;38158;53.338;6.514;2024-03-23T05:42:17;3.80;99.90
52181;DHT22;38158;53.338;6.514;2024-03-23T05:44:46;3.80;99.90
52181;DHT22;38158;53.338;6.514;2024-03-23T05:47:13;3.80;99.90
52181;DHT22;38158;53.338;6.514;2024-03-23T05:49:42;3.80;99.90
52181;DHT22;38158;53.338;6.514;2024-03-23T05:52:09;3.80;99.90
52181;DHT22;38158;53.338;6.514;2024-03-23T05:54:35;3.80;99.90
52181;DHT22;38158;53.338;6.514;2024-03-23T05:57:01;3.80;99.90
52181;DHT22;38158;53.338;6.514;2024-03-23T05:59:30;4.10;99.90
52181;DHT22;38158;53.338;6.514;2024-03-23T06:01:56;3.80;99.90
52181;DHT22;38158;53.338;6.514;2024-03-23T06:04:22;5.10;99.90
52181;DHT22;38158;53.338;6.514;2024-03-23T06:06:48;4.30;99.90
52181;DHT22;38158;53.338;6.514;2024-03-23T06:09:14;4.40;99.90
52181;DHT22;38158;53.338;6.514;2024-03-23T06:11:39;4.50;99.90
52181;DHT22;38158;53.338;6.514;2024-03-23T06:14:05;4.90;99.90
52181;DHT22;38158;53.338;6.514;2024-03-23T06:16:31;4.20;99.90
52181;DHT22;38158;53.338;6.514;2024-03-23T06:18:57;4.60;99.90
52181;DHT22;38158;53.338;6.514;2024-03-23T06:21:24;4.20;99.90
52181;DHT22;38158;53.338;6.514;2024-03-23T06:23:52;4.30;99.90
52181;DHT22;38158;53.338;6.514;2024-03-23T06:26:19;4.40;99.90
52181;DHT22;38158;53.338;6.514;2024-03-23T06:28:45;4.40;99.90
52181;DHT22;38158;53.338;6.514;2024-03-23T06:31:11;5.30;99.90
52181;DHT22;38158;53.338;6.514;2024-03-23T06:33:37;4.30;99.90
52181;DHT22;38158;53.338;6.514;2024-03-23T06:36:04;4.30;99.90
52181;DHT22;38158;53.338;6.514;2024-03-23T06:38:30;4.30;99.90
52181;DHT22;38158;53.338;6.514;2024-03-23T06:40:56;5.20;99.90
52181;DHT22;38158;53.338;6.514;2024-03-23T06:43:21;4.40;99.90
52181;DHT22;38158;53.338;6.514;2024-03-23T06:45:54;4.40;99.90
52181;DHT22;38158;53.338;6.514;2024-03-23T06:48:20;4.80;99.90
52181;DHT22;38158;53.338;6.514;2024-03-23T06:50:47;4.50;99.90
52181;DHT22;38158;53.338;6.514;2024-03-23T06:53:13;4.60;99.90
52181;DHT22;38158;53.338;6.514;2024-03-23T06:55:39;4.60;99.90
52181;DHT22;38158;53.338;6.514;2024-03-23T06:58:05;5.80;99.90
52181;DHT22;38158;53.338;6.514;2024-03-23T07:00:31;4.80;99.90
52181;DHT22;38158;53.338;6.514;2024-03-23T07:02:58;4.90;99.90
52181;DHT22;38158;53.338;6.514;2024-03-23T07:05:23;5.00;99.90
52181;DHT22;38158;53.338;6.514;2024-03-23T07:07:49;5.80;99.90
52181;DHT22;38158;53.338;6.514;2024-03-23T07:10:15;6.10;99.90
52181;DHT22;38158;53.338;6.514;2024-03-23T07:12:41;5.50;99.90
52181;DHT22;38158;53.338;6.514;2024-03-23T07:15:07;6.30;99.90
52181;DHT22;38158;53.338;6.514;2024-03-23T07:17:33;5.80;99.90
52181;DHT22;38158;53.338;6.514;2024-03-23T07:20:01;5.80;99.90
52181;DHT22;38158;53.338;6.514;2024-03-23T07:22:32;5.70;99.90
52181;DHT22;38158;53.338;6.514;2024-03-23T07:25:00;5.60;99.90
52181;DHT22;38158;53.338;6.514;2024-03-23T07:27:29;6.40;99.90
52181;DHT22;38158;53.338;6.514;2024-03-23T07:29:55;6.30;99.90
52181;DHT22;38158;53.338;6.514;2024-03-23T07:32:21;6.10;99.90
52181;DHT22;38158;53.338;6.514;2024-03-23T07:34:46;5.70;99.90
52181;DHT22;38158;53.338;6.514;2024-03-23T07:37:12;5.70;99.90
52181;DHT22;38158;53.338;6.514;2024-03-23T07:39:39;6.90;99.90
52181;DHT22;38158;53.338;6.514;2024-03-23T07:42:05;4.10;99.90
52181;DHT22;38158;53.338;6.514;2024-03-23T07:44:31;6.00;99.90
52181;DHT22;38158;53.338;6.514;2024-03-23T07:46:58;6.00;99.90
52181;DHT22;38158;53.338;6.514;2024-03-23T07:49:24;6.10;99.90
52181;DHT22;38158;53.338;6.514;2024-03-23T07:51:49;6.50;99.90
52181;DHT22;38158;53.338;6.514;2024-03-23T07:54:15;6.60;99.90
52181;DHT22;38158;53.338;6.514;2024-03-23T07:56:41;6.80;99.90
52181;DHT22;38158;53.338;6.514;2024-03-23T07:59:06;6.60;99.90
52181;DHT22;38158;53.338;6.514;2024-03-23T08:01:32;6.80;99.90
52181;DHT22;38158;53.338;6.514;2024-03-23T08:03:58;7.10;99.90
52181;DHT22;38158;53.338;6.514;2024-03-23T08:06:23;7.50;99.90
52181;DHT22;38158;53.338;6.514;2024-03-23T08:08:56;6.80;99.90
52181;DHT22;38158;53.338;6.514;2024-03-23T08:11:26;6.90;99.90
52181;DHT22;38158;53.338;6.514;2024-03-23T08:13:52;6.60;99.90
52181;DHT22;38158;53.338;6.514;2024-03-23T08:16:18;6.50;99.90
52181;DHT22;38158;53.338;6.514;2024-03-23T08:18:44;6.40;99.90
52181;DHT22;38158;53.338;6.514;2024-03-23T08:21:10;6.40;99.90
52181;DHT22;38158;53.338;6.514;2024-03-23T08:23:36;6.40;99.90
52181;DHT22;38158;53.338;6.514;2024-03-23T08:26:08;6.50;99.90
52181;DHT22;38158;53.338;6.514;2024-03-23T08:28:37;6.70;99.90
52181;DHT22;38158;53.338;6.514;2024-03-23T08:31:08;6.80;99.90
52181;DHT22;38158;53.338;6.514;2024-03-23T08:33:34;7.00;99.90
52181;DHT22;38158;53.338;6.514;2024-03-23T08:36:00;7.40;99.90
52181;DHT22;38158;53.338;6.514;2024-03-23T08:38:27;7.20;99.90
52181;DHT22;38158;53.338;6.514;2024-03-23T08:41:00;7.20;99.90
52181;DHT22;38158;53.338;6.514;2024-03-23T08:43:26;7.10;99.90
52181;DHT22;38158;53.338;6.514;2024-03-23T08:45:53;7.00;99.90
52181;DHT22;38158;53.338;6.514;2024-03-23T08:48:21;7.00;99.90
52181;DHT22;38158;53.338;6.514;2024-03-23T08:50:47;7.10;99.90
52181;DHT22;38158;53.338;6.514;2024-03-23T08:53:22;7.20;99.90
52181;DHT22;38158;53.338;6.514;2024-03-23T08:55:58;7.30;99.90
52181;DHT22;38158;53.338;6.514;2024-03-23T08:58:25;7.50;99.90
52181;DHT22;38158;53.338;6.514;2024-03-23T09:00:52;7.70;99.90
52181;DHT22;38158;53.338;6.514;2024-03-23T09:03:18;7.80;99.90
52181;DHT22;38158;53.338;6.514;2024-03-23T09:05:44;8.00;99.90
52181;DHT22;38158;53.338;6.514;2024-03-23T09:08:09;8.10;99.90
52181;DHT22;38158;53.338;6.514;2024-03-23T09:10:39;8.40;99.90
52181;DHT22;38158;53.338;6.514;2024-03-23T09:13:06;8.60;99.90
52181;DHT22;38158;53.338;6.514;2024-03-23T09:15:36;8.70;99.90
52181;DHT22;38158;53.338;6.514;2024-03-23T09:18:05;8.40;99.90
52181;DHT22;38158;53.338;6.514;2024-03-23T09:20:33;8.00;99.90
52181;DHT22;38158;53.338;6.514;2024-03-23T09:22:59;7.60;99.90
52181;DHT22;38158;53.338;6.514;2024-03-23T09:25:25;7.30;99.90
52181;DHT22;38158;53.338;6.514;2024-03-23T09:27:50;7.00;99.90
52181;DHT22;38158;53.338;6.514;2024-03-23T09:30:16;6.80;99.90
52181;DHT22;38158;53.338;6.514;2024-03-23T09:32:43;6.70;99.90
52181;DHT22;38158;53.338;6.514;2024-03-23T09:35:09;6.70;99.90
52181;DHT22;38158;53.338;6.514;2024-03-23T09:37:36;6.90;99.90
52181;DHT22;38158;53.338;6.514;2024-03-23T09:40:02;7.00;99.90
52181;DHT22;38158;53.338;6.514;2024-03-23T09:42:28;7.20;99.90
52181;DHT22;38158;53.338;6.514;2024-03-23T09:45:00;7.50;99.90
52181;DHT22;38158;53.338;6.514;2024-03-23T09:47:29;7.60;99.90
52181;DHT22;38158;53.338;6.514;2024-03-23T09:49:55;7.90;99.90
52181;DHT22;38158;53.338;6.514;2024-03-23T09:52:21;8.10;99.90
52181;DHT22;38158;53.338;6.514;2024-03-23T09:54:46;8.30;99.90
52181;DHT22;38158;53.338;6.514;2024-03-23T09:57:12;8.60;99.90
52181;DHT22;38158;53.338;6.514;2024-03-23T09:59:37;8.90;99.90
52181;DHT22;38158;53.338;6.514;2024-03-23T10:02:04;8.90;99.90
52181;DHT22;38158;53.338;6.514;2024-03-23T10:04:40;9.00;99.90
52181;DHT22;38158;53.338;6.514;2024-03-23T10:07:19;9.20;99.90
52181;DHT22;38158;53.338;6.514;2024-03-23T10:09:46;9.30;99.90
52181;DHT22;38158;53.338;6.514;2024-03-23T10:12:17;9.20;99.90
52181;DHT22;38158;53.338;6.514;2024-03-23T10:14:43;9.00;99.90
52181;DHT22;38158;53.338;6.514;2024-03-23T10:17:14;8.70;99.90
52181;DHT22;38158;53.338;6.514;2024-03-23T10:19:46;8.70;99.90
52181;DHT22;38158;53.338;6.514;2024-03-23T10:22:23;8.70;99.90
52181;DHT22;38158;53.338;6.514;2024-03-23T10:24:50;8.80;99.90
52181;DHT22;38158;53.338;6.514;2024-03-23T10:27:20;8.80;99.90
52181;DHT22;38158;53.338;6.514;2024-03-23T10:29:47;8.40;99.90
52181;DHT22;38158;53.338;6.514;2024-03-23T10:32:14;8.00;99.90
52181;DHT22;38158;53.338;6.514;2024-03-23T10:34:41;7.60;99.90
52181;DHT22;38158;53.338;6.514;2024-03-23T10:37:07;7.30;99.90
52181;DHT22;38158;53.338;6.514;2024-03-23T10:39:37;7.10;99.90
52181;DHT22;38158;53.338;6.514;2024-03-23T10:44:31;6.80;99.90
52181;DHT22;38158;53.338;6.514;2024-03-23T10:47:00;6.70;99.90
52181;DHT22;38158;53.338;6.514;2024-03-23T10:49:31;6.70;99.90
52181;DHT22;38158;53.338;6.514;2024-03-23T10:51:58;6.60;99.90
52181;DHT22;38158;53.338;6.514;2024-03-23T10:54:25;6.70;99.90
52181;DHT22;38158;53.338;6.514;2024-03-23T10:59:30;6.70;99.90
52181;DHT22;38158;53.338;6.514;2024-03-23T11:01:57;7.20;99.90
52181;DHT22;38158;53.338;6.514;2024-03-23T11:04:34;6.90;99.90
52181;DHT22;38158;53.338;6.514;2024-03-23T11:09:45;6.80;99.90
52181;DHT22;38158;53.338;6.514;2024-03-23T11:15:12;7.40;99.90
52181;DHT22;38158;53.338;6.514;2024-03-23T11:17:38;7.80;99.90
52181;DHT22;38158;53.338;6.514;2024-03-23T11:20:05;8.30;99.90
52181;DHT22;38158;53.338;6.514;2024-03-23T11:25:22;8.80;99.90
52181;DHT22;38158;53.338;6.514;2024-03-23T11:27:55;8.70;99.90
52181;DHT22;38158;53.338;6.514;2024-03-23T11:30:22;8.60;99.90
52181;DHT22;38158;53.338;6.514;2024-03-23T11:32:53;8.30;99.90
52181;DHT22;38158;53.338;6.514;2024-03-23T11:38:08;7.70;99.90
52181;DHT22;38158;53.338;6.514;2024-03-23T11:40:35;7.40;99.90
52181;DHT22;38158;53.338;6.514;2024-03-23T11:43:06;7.40;99.90
52181;DHT22;38158;53.338;6.514;2024-03-23T11:45:37;7.10;99.90
52181;DHT22;38158;53.338;6.514;2024-03-23T11:48:14;7.10;99.90
52181;DHT22;38158;53.338;6.514;2024-03-23T11:50:41;7.40;99.90
52181;DHT22;38158;53.338;6.514;2024-03-23T11:53:18;7.80;99.90
52181;DHT22;38158;53.338;6.514;2024-03-23T11:55:56;8.00;99.90
52181;DHT22;38158;53.338;6.514;2024-03-23T11:58:26;8.00;99.90
52181;DHT22;38158;53.338;6.514;2024-03-23T12:00:59;7.90;99.90
52181;DHT22;38158;53.338;6.514;2024-03-23T12:03:26;7.80;99.90
52181;DHT22;38158;53.338;6.514;2024-03-23T12:05:54;7.70;99.90
52181;DHT22;38158;53.338;6.514;2024-03-23T12:08:23;7.70;99.90
52181;DHT22;38158;53.338;6.514;2024-03-23T12:10:53;7.80;99.90
52181;DHT22;38158;53.338;6.514;2024-03-23T12:13:20;7.70;99.90
52181;DHT22;38158;53.338;6.514;2024-03-23T12:15:50;7.50;99.90
52181;DHT22;38158;53.338;6.514;2024-03-23T12:18:17;7.50;99.90
52181;DHT22;38158;53.338;6.514;2024-03-23T12:20:43;7.60;99.90
52181;DHT22;38158;53.338;6.514;2024-03-23T12:23:11;7.70;99.90
52181;DHT22;38158;53.338;6.514;2024-03-23T12:25:40;7.70;99.90
52181;DHT22;38158;53.338;6.514;2024-03-23T12:28:07;7.90;99.90
52181;DHT22;38158;53.338;6.514;2024-03-23T12:30:39;8.10;99.90
52181;DHT22;38158;53.338;6.514;2024-03-23T12:33:05;8.30;99.90
52181;DHT22;38158;53.338;6.514;2024-03-23T12:35:31;9.70;99.90
52181;DHT22;38158;53.338;6.514;2024-03-23T12:37:57;8.60;99.90
52181;DHT22;38158;53.338;6.514;2024-03-23T12:40:23;9.00;99.90
52181;DHT22;38158;53.338;6.514;2024-03-23T12:42:49;9.00;99.90
52181;DHT22;38158;53.338;6.514;2024-03-23T12:45:15;9.00;99.90
52181;DHT22;38158;53.338;6.514;2024-03-23T12:47:40;8.70;99.90
52181;DHT22;38158;53.338;6.514;2024-03-23T12:50:06;8.50;99.90
52181;DHT22;38158;53.338;6.514;2024-03-23T12:52:36;8.20;99.90
52181;DHT22;38158;53.338;6.514;2024-03-23T12:55:01;8.00;99.90
52181;DHT22;38158;53.338;6.514;2024-03-23T12:57:32;7.90;99.90
52181;DHT22;38158;53.338;6.514;2024-03-23T12:59:58;8.00;99.90
52181;DHT22;38158;53.338;6.514;2024-03-23T13:02:24;8.00;99.90
52181;DHT22;38158;53.338;6.514;2024-03-23T13:04:53;7.60;99.90
52181;DHT22;38158;53.338;6.514;2024-03-23T13:07:20;7.20;99.90
52181;DHT22;38158;53.338;6.514;2024-03-23T13:09:47;7.00;99.90
52181;DHT22;38158;53.338;6.514;2024-03-23T13:12:15;6.90;99.90
52181;DHT22;38158;53.338;6.514;2024-03-23T13:14:40;6.90;99.90
52181;DHT22;38158;53.338;6.514;2024-03-23T13:17:07;7.00;99.90
52181;DHT22;38158;53.338;6.514;2024-03-23T13:19:33;7.40;99.90
52181;DHT22;38158;53.338;6.514;2024-03-23T13:22:00;7.10;99.90
52181;DHT22;38158;53.338;6.514;2024-03-23T13:24:27;7.30;99.90
52181;DHT22;38158;53.338;6.514;2024-03-23T13:26:54;7.10;99.90
52181;DHT22;38158;53.338;6.514;2024-03-23T13:29:20;7.10;99.90
52181;DHT22;38158;53.338;6.514;2024-03-23T13:31:48;7.20;99.90
52181;DHT22;38158;53.338;6.514;2024-03-23T13:34:14;7.20;99.90
52181;DHT22;38158;53.338;6.514;2024-03-23T13:36:44;7.30;99.90
52181;DHT22;38158;53.338;6.514;2024-03-23T13:39:10;7.40;99.90
52181;DHT22;38158;53.338;6.514;2024-03-23T13:41:40;7.60;99.90
52181;DHT22;38158;53.338;6.514;2024-03-23T13:44:07;7.20;99.90
52181;DHT22;38158;53.338;6.514;2024-03-23T13:46:33;7.00;99.90
52181;DHT22;38158;53.338;6.514;2024-03-23T13:48:59;6.80;99.90
52181;DHT22;38158;53.338;6.514;2024-03-23T13:51:26;6.70;99.90
52181;DHT22;38158;53.338;6.514;2024-03-23T13:53:53;6.80;99.90
52181;DHT22;38158;53.338;6.514;2024-03-23T13:56:20;6.90;99.90
52181;DHT22;38158;53.338;6.514;2024-03-23T13:58:45;7.10;99.90
52181;DHT22;38158;53.338;6.514;2024-03-23T14:01:16;7.30;99.90
52181;DHT22;38158;53.338;6.514;2024-03-23T14:03:44;7.50;99.90
52181;DHT22;38158;53.338;6.514;2024-03-23T14:06:10;8.10;99.90
52181;DHT22;38158;53.338;6.514;2024-03-23T14:08:37;7.80;99.90
52181;DHT22;38158;53.338;6.514;2024-03-23T14:11:11;7.90;99.90
52181;DHT22;38158;53.338;6.514;2024-03-23T14:13:37;7.90;99.90
52181;DHT22;38158;53.338;6.514;2024-03-23T14:16:03;7.80;99.90
52181;DHT22;38158;53.338;6.514;2024-03-23T14:18:31;7.60;99.90
52181;DHT22;38158;53.338;6.514;2024-03-23T14:21:00;7.50;99.90
52181;DHT22;38158;53.338;6.514;2024-03-23T14:23:27;7.40;99.90
52181;DHT22;38158;53.338;6.514;2024-03-23T14:25:55;7.60;99.90
52181;DHT22;38158;53.338;6.514;2024-03-23T14:28:24;7.70;99.90
52181;DHT22;38158;53.338;6.514;2024-03-23T14:30:51;7.70;99.90
52181;DHT22;38158;53.338;6.514;2024-03-23T14:33:18;7.70;99.90
52181;DHT22;38158;53.338;6.514;2024-03-23T14:35:51;7.60;99.90
52181;DHT22;38158;53.338;6.514;2024-03-23T14:38:18;7.50;99.90
52181;DHT22;38158;53.338;6.514;2024-03-23T14:40:44;7.60;99.90
52181;DHT22;38158;53.338;6.514;2024-03-23T14:43:09;7.70;99.90
52181;DHT22;38158;53.338;6.514;2024-03-23T14:45:35;7.70;99.90
52181;DHT22;38158;53.338;6.514;2024-03-23T14:48:01;7.80;99.90
52181;DHT22;38158;53.338;6.514;2024-03-23T14:50:27;7.80;99.90
52181;DHT22;38158;53.338;6.514;2024-03-23T14:52:53;7.70;99.90
52181;DHT22;38158;53.338;6.514;2024-03-23T14:55:19;7.80;99.90
52181;DHT22;38158;53.338;6.514;2024-03-23T14:57:45;7.80;99.90
52181;DHT22;38158;53.338;6.514;2024-03-23T15:00:11;7.90;99.90
52181;DHT22;38158;53.338;6.514;2024-03-23T15:02:38;7.90;99.90
52181;DHT22;38158;53.338;6.514;2024-03-23T15:05:04;7.80;99.90
52181;DHT22;38158;53.338;6.514;2024-03-23T15:07:31;7.80;99.90
52181;DHT22;38158;53.338;6.514;2024-03-23T15:09:56;7.90;99.90
52181;DHT22;38158;53.338;6.514;2024-03-23T15:12:22;8.00;99.90
52181;DHT22;38158;53.338;6.514;2024-03-23T15:14:48;8.00;99.90
52181;DHT22;38158;53.338;6.514;2024-03-23T15:17:14;8.00;99.90
52181;DHT22;38158;53.338;6.514;2024-03-23T15:19:39;8.00;99.90
52181;DHT22;38158;53.338;6.514;2024-03-23T15:22:07;7.90;99.90
52181;DHT22;38158;53.338;6.514;2024-03-23T15:24:34;7.90;99.90
52181;DHT22;38158;53.338;6.514;2024-03-23T15:27:01;8.00;99.90
52181;DHT22;38158;53.338;6.514;2024-03-23T15:29:28;8.10;99.90
52181;DHT22;38158;53.338;6.514;2024-03-23T15:31:53;8.30;99.90
52181;DHT22;38158;53.338;6.514;2024-03-23T15:34:20;8.30;99.90
52181;DHT22;38158;53.338;6.514;2024-03-23T15:36:49;8.30;99.90
52181;DHT22;38158;53.338;6.514;2024-03-23T15:39:17;8.20;99.90
52181;DHT22;38158;53.338;6.514;2024-03-23T15:41:46;8.10;99.90
52181;DHT22;38158;53.338;6.514;2024-03-23T15:44:11;8.00;99.90
52181;DHT22;38158;53.338;6.514;2024-03-23T15:46:37;7.90;99.90
52181;DHT22;38158;53.338;6.514;2024-03-23T15:49:03;7.70;99.90
52181;DHT22;38158;53.338;6.514;2024-03-23T15:51:30;7.80;99.90
52181;DHT22;38158;53.338;6.514;2024-03-23T15:53:59;7.70;99.90
52181;DHT22;38158;53.338;6.514;2024-03-23T15:56:25;7.70;99.90
52181;DHT22;38158;53.338;6.514;2024-03-23T15:58:50;7.60;99.90
52181;DHT22;38158;53.338;6.514;2024-03-23T16:01:16;7.50;99.90
52181;DHT22;38158;53.338;6.514;2024-03-23T16:03:42;7.50;99.90
52181;DHT22;38158;53.338;6.514;2024-03-23T16:06:08;7.50;99.90
52181;DHT22;38158;53.338;6.514;2024-03-23T16:08:34;7.50;99.90
52181;DHT22;38158;53.338;6.514;2024-03-23T16:11:07;7.60;99.90
52181;DHT22;38158;53.338;6.514;2024-03-23T16:13:35;7.60;99.90
52181;DHT22;38158;53.338;6.514;2024-03-23T16:16:02;7.80;99.90
52181;DHT22;38158;53.338;6.514;2024-03-23T16:18:38;7.70;99.90
52181;DHT22;38158;53.338;6.514;2024-03-23T16:21:09;7.80;99.90
52181;DHT22;38158;53.338;6.514;2024-03-23T16:23:35;7.70;99.90
52181;DHT22;38158;53.338;6.514;2024-03-23T16:26:07;7.70;99.90
52181;DHT22;38158;53.338;6.514;2024-03-23T16:28:34;7.70;99.90
52181;DHT22;38158;53.338;6.514;2024-03-23T16:31:01;7.60;99.90
52181;DHT22;38158;53.338;6.514;2024-03-23T16:33:28;7.60;99.90
52181;DHT22;38158;53.338;6.514;2024-03-23T16:38:29;7.70;99.90
52181;DHT22;38158;53.338;6.514;2024-03-23T16:40:56;7.60;99.90
52181;DHT22;38158;53.338;6.514;2024-03-23T16:43:22;7.70;99.90
52181;DHT22;38158;53.338;6.514;2024-03-23T16:45:56;7.60;99.90
52181;DHT22;38158;53.338;6.514;2024-03-23T16:48:27;7.50;99.90
52181;DHT22;38158;53.338;6.514;2024-03-23T16:50:57;7.40;99.90
52181;DHT22;38158;53.338;6.514;2024-03-23T16:53:23;7.40;99.90